Chester, New Hampshire
Current Conditions -  °F | °C
As of 11:53 AM on Friday 28 Nov 2014 (Local Time) from KMHT Reporting Station
Broken Clouds Broken Clouds  
Wind Chill: 23°   Ceiling: 11000
Heat Index: 32°   Visibility: 10mi
Dew Point: 21°   Wind: 13mph
Humidity: 64%   Direction: 330°NNW
Pressure: 30.04"   Gusts: NA
Location:  42.96°N, 71.26°W
Report Text: KMHT 281653Z 33011KT 10SM SCT023 BKN110 00/M06 A3004 RMK AO2 SLP192 T00001061
Loading
Personal Weather Stations






























Interactive Weather Map New forecast layout! Learn more

10-Day Weather Forecast

Advertisements
Track Severe Weather on mobile